Time;durP1;ratioP1;P1;durP2;ratioP2;P2;SDS_P1;SDS_P2;PMS_P1;PMS_P2;Temp;Humidity;BMP_temperature;BMP_pressure;BME280_temperature;BME280_humidity;BME280_pressure;Samples;Min_cycle;Max_cycle;Signal;HPM_P1;HPM_P2
2021/04/05 00:01:16;;;;;;;11.43;6.50;;;3.40;82.40;;;;;;6251473;22;20000;-91
2021/04/05 00:03:42;;;;;;;10.20;7.38;;;3.40;82.50;;;;;;6251234;22;20423;-91
2021/04/05 00:06:08;;;;;;;9.45;6.50;;;3.40;82.10;;;;;;6251763;22;20008;-91
2021/04/05 00:08:33;;;;;;;7.90;6.10;;;3.30;81.90;;;;;;6251209;22;20000;-91
2021/04/05 00:11:02;;;;;;;8.65;6.53;;;3.40;81.90;;;;;;6251328;22;20419;-91
2021/04/05 00:13:34;;;;;;;9.43;6.40;;;3.40;82.00;;;;;;6251453;22;20356;-92
2021/04/05 00:16:09;;;;;;;8.85;5.80;;;3.30;82.30;;;;;;6278603;22;20073;-91
2021/04/05 00:18:38;;;;;;;7.43;5.75;;;3.30;81.80;;;;;;6251996;22;20419;-92
2021/04/05 00:21:22;;;;;;;7.32;5.82;;;3.30;81.40;;;;;;6251517;22;20000;-92
2021/04/05 00:23:52;;;;;;;7.18;5.32;;;3.30;81.80;;;;;;6251571;22;20007;-92
2021/04/05 00:26:21;;;;;;;7.53;5.75;;;3.30;82.50;;;;;;6252104;22;20011;-92
2021/04/05 00:28:48;;;;;;;7.90;5.90;;;3.20;82.00;;;;;;6251969;22;20454;-92
2021/04/05 00:31:15;;;;;;;6.30;5.28;;;3.30;81.90;;;;;;6251387;22;20008;-92
2021/04/05 00:33:43;;;;;;;9.50;6.75;;;3.20;82.20;;;;;;6251443;22;20415;-92
2021/04/05 00:36:14;;;;;;;9.35;7.35;;;3.30;82.40;;;;;;6251327;22;20012;-91
2021/04/05 00:38:40;;;;;;;9.55;7.45;;;3.20;83.00;;;;;;6252148;22;20012;-92
2021/04/05 00:41:12;;;;;;;11.55;7.80;;;3.20;83.50;;;;;;6251284;22;20015;-92
2021/04/05 00:43:43;;;;;;;10.25;7.57;;;3.20;84.50;;;;;;6252467;22;20003;-92
2021/04/05 00:46:12;;;;;;;9.10;7.38;;;3.20;83.70;;;;;;6252635;22;20007;-91
2021/04/05 00:48:38;;;;;;;9.80;7.20;;;3.20;83.70;;;;;;6252432;22;20488;-91
2021/04/05 00:51:14;;;;;;;12.07;7.55;;;3.20;84.50;;;;;;6252806;22;20003;-92
2021/04/05 00:53:45;;;;;;;9.38;6.47;;;3.20;84.10;;;;;;6255522;22;20035;-92
2021/04/05 00:56:15;;;;;;;11.55;6.40;;;3.20;83.30;;;;;;6284446;22;20014;-91
2021/04/05 00:58:42;;;;;;;7.85;5.18;;;3.20;84.10;;;;;;6290233;22;20037;-92
2021/04/05 01:01:10;;;;;;;10.23;6.32;;;3.20;83.00;;;;;;6289207;22;20079;-93
2021/04/05 01:03:40;;;;;;;8.02;5.80;;;3.20;83.00;;;;;;6289117;22;20068;-93
2021/04/05 01:06:13;;;;;;;8.65;5.40;;;3.20;83.40;;;;;;6283510;22;20006;-91
2021/04/05 01:08:39;;;;;;;6.25;5.07;;;3.20;83.20;;;;;;6308200;22;20002;-92
2021/04/05 01:11:06;;;;;;;7.78;6.20;;;3.20;82.90;;;;;;6309463;22;19996;-92
2021/04/05 01:13:32;;;;;;;7.85;6.20;;;3.20;83.30;;;;;;6289562;22;20046;-91
2021/04/05 01:15:58;;;;;;;9.65;5.53;;;3.10;83.30;;;;;;6308253;22;20000;-92
2021/04/05 01:18:27;;;;;;;7.60;5.88;;;3.10;83.20;;;;;;6309611;22;20018;-93
2021/04/05 01:20:53;;;;;;;8.80;5.85;;;3.10;83.30;;;;;;6309812;22;20047;-91
2021/04/05 01:23:23;;;;;;;8.40;5.63;;;3.10;83.00;;;;;;6309947;22;19995;-92
2021/04/05 01:25:52;;;;;;;9.23;5.07;;;3.10;83.80;;;;;;6297951;22;20005;-91
2021/04/05 01:28:19;;;;;;;8.93;6.13;;;3.10;83.30;;;;;;6291247;22;20394;-93
2021/04/05 01:31:12;;;;;;;10.32;6.47;;;3.10;83.30;;;;;;6289050;22;20000;-93
2021/04/05 01:33:40;;;;;;;8.15;6.57;;;3.10;83.90;;;;;;6279800;22;19999;-92
2021/04/05 01:36:13;;;;;;;8.98;6.18;;;3.00;84.10;;;;;;6310483;22;20079;-93
2021/04/05 01:38:46;;;;;;;9.57;6.32;;;3.00;83.20;;;;;;6283552;22;20018;-92
2021/04/05 01:41:21;;;;;;;10.05;5.63;;;3.00;83.00;;;;;;6283123;22;20003;-92
2021/04/05 01:43:47;;;;;;;12.18;6.57;;;3.00;83.50;;;;;;6310637;22;19991;-92
2021/04/05 01:46:19;;;;;;;8.85;6.57;;;2.90;84.00;;;;;;6283783;22;20007;-92
2021/04/05 01:48:48;;;;;;;9.80;6.80;;;2.90;83.70;;;;;;6283623;22;20004;-92
2021/04/05 01:51:24;;;;;;;9.80;6.22;;;2.90;84.50;;;;;;6283473;22;20003;-92
2021/04/05 01:53:51;;;;;;;12.07;8.05;;;2.90;83.80;;;;;;6284029;22;20027;-92
2021/04/05 01:56:20;;;;;;;8.00;5.95;;;2.90;83.40;;;;;;6282941;22;20019;-93
2021/04/05 01:58:48;;;;;;;8.13;6.22;;;2.90;83.20;;;;;;6310644;22;20002;-92
2021/04/05 02:01:24;;;;;;;9.00;6.55;;;2.80;83.30;;;;;;6310663;22;20430;-93
2021/04/05 02:03:52;;;;;;;10.60;7.25;;;2.80;83.60;;;;;;6284084;22;20541;-93
2021/04/05 02:06:33;;;;;;;10.27;6.55;;;2.80;83.60;;;;;;6283193;22;20007;-92
2021/04/05 02:09:02;;;;;;;11.10;7.25;;;2.80;83.40;;;;;;6283436;22;20009;-92
2021/04/05 02:11:36;;;;;;;10.43;6.28;;;2.80;83.50;;;;;;6310272;22;19995;-93
2021/04/05 02:14:06;;;;;;;10.32;6.28;;;2.80;83.20;;;;;;6283104;22;19999;-93
2021/04/05 02:16:32;;;;;;;9.82;6.97;;;2.70;83.70;;;;;;6283058;22;20442;-93
2021/04/05 02:19:03;;;;;;;10.52;6.68;;;2.70;83.10;;;;;;6283108;22;19999;-93
2021/04/05 02:21:30;;;;;;;9.95;6.13;;;2.70;83.10;;;;;;6283309;22;20132;-92
2021/04/05 02:24:02;;;;;;;10.00;7.00;;;2.70;83.20;;;;;;6283507;22;19999;-92
2021/04/05 02:26:31;;;;;;;10.07;7.05;;;2.70;83.20;;;;;;6283165;22;20319;-93
2021/04/05 02:29:05;;;;;;;13.07;7.40;;;2.70;83.20;;;;;;6282364;22;20060;-93
2021/04/05 02:31:33;;;;;;;9.48;6.47;;;2.70;83.10;;;;;;6283575;22;20046;-93
2021/04/05 02:34:00;;;;;;;12.13;7.80;;;2.70;83.20;;;;;;6310283;22;20002;-93
2021/04/05 02:36:34;;;;;;;11.18;7.43;;;2.70;83.10;;;;;;6283017;22;20071;-93
2021/04/05 02:39:03;;;;;;;;;;;2.70;83.10;;;;;;6283730;22;19999;-93
2021/04/05 02:41:31;;;;;;;11.43;6.65;;;2.60;83.90;;;;;;6283010;22;19899;-93
2021/04/05 02:44:00;;;;;;;15.50;10.55;;;2.60;83.30;;;;;;6282606;22;19995;-92
2021/04/05 02:46:28;;;;;;;15.80;10.13;;;2.60;84.50;;;;;;6309710;22;19999;-93
2021/04/05 02:49:04;;;;;;;15.52;10.00;;;2.60;84.30;;;;;;6282581;22;20006;-92
2021/04/05 02:51:41;;;;;;;15.65;9.80;;;2.60;86.00;;;;;;6283505;22;20030;-91
2021/04/05 02:54:07;;;;;;;14.32;8.65;;;2.50;85.50;;;;;;6302409;22;19979;-90
2021/04/05 02:56:37;;;;;;;13.38;8.32;;;2.60;84.70;;;;;;6337079;22;20013;-92
2021/04/05 02:59:05;;;;;;;11.70;7.75;;;2.60;84.20;;;;;;6310584;22;19998;-91
2021/04/05 03:01:35;;;;;;;10.95;7.07;;;2.50;84.20;;;;;;6337336;22;19987;-92
2021/04/05 03:04:04;;;;;;;11.45;8.15;;;2.50;84.20;;;;;;6307557;22;20007;-92
2021/04/05 03:06:31;;;;;;;17.67;11.32;;;2.50;84.20;;;;;;6291851;22;20035;-92
2021/04/05 03:09:01;;;;;;;16.08;11.27;;;2.50;86.10;;;;;;6289560;22;20000;-93
2021/04/05 03:11:27;;;;;;;17.48;11.13;;;2.50;85.70;;;;;;6290615;22;20048;-93
2021/04/05 03:13:56;;;;;;;24.58;13.45;;;2.50;85.10;;;;;;6289990;22;20052;-93
2021/04/05 03:16:24;;;;;;;22.42;14.48;;;2.50;85.70;;;;;;6289478;22;20015;-93
2021/04/05 03:18:55;;;;;;;26.65;16.30;;;2.60;86.90;;;;;;6287166;22;20030;-91
2021/04/05 03:21:23;;;;;;;17.83;13.45;;;2.60;87.80;;;;;;6296849;22;20051;-91
2021/04/05 03:23:49;;;;;;;23.10;15.52;;;2.60;87.50;;;;;;6330033;22;19992;-91
2021/04/05 03:26:16;;;;;;;22.63;14.18;;;2.60;87.10;;;;;;6302735;22;20023;-92
2021/04/05 03:28:44;;;;;;;21.10;13.38;;;2.60;87.90;;;;;;6303519;22;20026;-92
2021/04/05 03:31:16;;;;;;;17.60;11.50;;;2.60;87.10;;;;;;6301368;22;20016;-94
2021/04/05 03:34:06;;;;;;;15.30;10.43;;;2.60;86.80;;;;;;6300914;22;19995;-93
2021/04/05 03:36:50;;;;;;;16.40;11.48;;;2.60;86.60;;;;;;6290914;22;20049;-92
2021/04/05 03:39:16;;;;;;;16.58;10.48;;;2.60;86.20;;;;;;6287411;22;20086;-92
2021/04/05 03:41:54;;;;;;;14.45;8.88;;;2.50;85.80;;;;;;6286216;22;20002;-92
2021/04/05 03:45:04;;;;;;;16.42;9.25;;;2.50;85.60;;;;;;6283167;22;20003;-91
2021/04/05 03:48:05;;;;;;;13.93;9.90;;;2.50;85.60;;;;;;6282711;22;20454;-93
2021/04/05 03:50:31;;;;;;;15.10;9.93;;;2.50;86.20;;;;;;6283307;22;20007;-94
2021/04/05 03:53:11;;;;;;;18.08;10.23;;;2.50;86.10;;;;;;6309764;22;20029;-92
2021/04/05 03:55:40;;;;;;;18.52;10.32;;;2.50;85.80;;;;;;6281370;22;20037;-92
2021/04/05 03:58:10;;;;;;;14.48;9.35;;;2.50;85.80;;;;;;6282070;22;20419;-92
2021/04/05 04:00:40;;;;;;;16.70;10.82;;;2.60;85.90;;;;;;6283133;22;19995;-92
2021/04/05 04:03:11;;;;;;;13.60;9.68;;;2.70;85.80;;;;;;6283015;22;20003;-92
2021/04/05 04:05:49;;;;;;;17.48;11.20;;;2.70;85.70;;;;;;6284411;22;20029;-92
2021/04/05 04:08:26;;;;;;;18.10;12.77;;;2.80;85.70;;;;;;6282741;22;20003;-92
2021/04/05 04:10:57;;;;;;;16.38;12.13;;;2.80;85.90;;;;;;6282100;22;19999;-93
2021/04/05 04:13:25;;;;;;;19.70;14.05;;;2.90;85.70;;;;;;6281632;22;20052;-92
2021/04/05 04:15:58;;;;;;;21.55;15.13;;;3.00;85.70;;;;;;6282397;22;20015;-92
2021/04/05 04:18:29;;;;;;;21.48;15.13;;;3.00;85.60;;;;;;6282500;22;20369;-92
2021/04/05 04:20:58;;;;;;;26.92;16.75;;;3.10;86.20;;;;;;6308508;22;20006;-93
2021/04/05 04:23:27;;;;;;;22.88;15.55;;;3.10;85.30;;;;;;6282713;22;20045;-92
2021/04/05 04:25:53;;;;;;;24.48;15.55;;;3.20;85.30;;;;;;6283363;22;20031;-92
2021/04/05 04:28:21;;;;;;;21.75;15.27;;;3.20;85.70;;;;;;6282372;22;20002;-91
2021/04/05 04:30:55;;;;;;;20.95;13.70;;;3.30;85.30;;;;;;6282066;22;20003;-91
2021/04/05 04:33:23;;;;;;;22.33;13.77;;;3.30;85.10;;;;;;6288931;22;20003;-92
2021/04/05 04:35:52;;;;;;;23.25;13.43;;;3.40;84.80;;;;;;6305346;22;20014;-92
2021/04/05 04:38:24;;;;;;;21.30;12.77;;;3.50;84.60;;;;;;6308726;22;19991;-92
2021/04/05 04:40:51;;;;;;;18.23;12.25;;;3.60;84.40;;;;;;6309411;22;20463;-93
2021/04/05 04:43:17;;;;;;;17.33;10.85;;;3.70;84.30;;;;;;6335424;22;19999;-92
2021/04/05 04:45:48;;;;;;;18.08;11.88;;;3.80;84.10;;;;;;6297296;22;20460;-92
2021/04/05 04:48:14;;;;;;;17.48;11.95;;;3.80;83.90;;;;;;6294036;22;20351;-92
2021/04/05 04:50:42;;;;;;;17.58;12.20;;;4.00;83.80;;;;;;6293477;22;19995;-92
2021/04/05 04:53:10;;;;;;;17.25;12.20;;;4.10;83.60;;;;;;6322833;22;19991;-92
2021/04/05 04:55:38;;;;;;;16.45;10.82;;;4.20;83.30;;;;;;6279920;22;20035;-92
2021/04/05 04:58:06;;;;;;;16.80;11.30;;;4.30;83.20;;;;;;6278858;22;20439;-92
2021/04/05 05:00:35;;;;;;;16.20;11.52;;;4.50;83.00;;;;;;6279471;22;20038;-92
2021/04/05 05:03:08;;;;;;;18.52;13.02;;;4.60;82.60;;;;;;6281571;22;20003;-93
2021/04/05 05:05:37;;;;;;;18.55;11.73;;;4.70;82.30;;;;;;6282885;22;19996;-92
2021/04/05 05:08:05;;;;;;;17.27;10.48;;;4.80;82.20;;;;;;6282533;22;20427;-92
2021/04/05 05:10:32;;;;;;;22.52;14.35;;;4.90;82.20;;;;;;6286670;22;20007;-92
2021/04/05 05:13:00;;;;;;;19.08;12.38;;;5.00;82.10;;;;;;6292768;22;20031;-93
2021/04/05 05:15:30;;;;;;;18.08;11.82;;;5.10;81.90;;;;;;6289873;22;20008;-92
2021/04/05 05:17:59;;;;;;;19.98;11.23;;;5.20;81.60;;;;;;6290032;22;20004;-92
2021/04/05 05:20:26;;;;;;;19.65;11.85;;;5.30;81.60;;;;;;6291976;22;20002;-93
2021/04/05 05:23:00;;;;;;;21.00;13.40;;;5.40;81.30;;;;;;6283987;22;20006;-92
2021/04/05 05:25:30;;;;;;;18.92;11.13;;;5.50;81.30;;;;;;6282925;22;20004;-93
2021/04/05 05:28:14;;;;;;;14.73;9.95;;;5.60;80.90;;;;;;6282274;22;20000;-92
2021/04/05 05:30:49;;;;;;;13.10;9.52;;;5.70;80.80;;;;;;6283230;22;20008;-92
2021/04/05 05:33:23;;;;;;;13.60;8.98;;;5.80;80.50;;;;;;6283407;22;20010;-92
2021/04/05 05:36:02;;;;;;;15.07;8.88;;;5.90;80.50;;;;;;6284057;22;20004;-93
2021/04/05 05:38:35;;;;;;;11.75;8.77;;;6.00;79.90;;;;;;6282269;22;20094;-92
2021/04/05 05:41:32;;;;;;;11.32;9.10;;;6.10;79.40;;;;;;6284458;22;20004;-93
2021/04/05 05:44:46;;;;;;;17.55;9.35;;;6.20;79.00;;;;;;6282342;22;20081;-93
2021/04/05 05:47:34;;;;;;;;;;;;;;;;;;;;;
2021/04/05 05:50:37;;;;;;;14.50;9.20;;;6.40;79.20;;;;;;6284920;22;20046;-92
2021/04/05 05:53:37;;;;;;;14.23;9.23;;;6.60;78.80;;;;;;6282260;22;20004;-92
2021/04/05 05:56:55;;;;;;;;;;;;;;;;;;;;;
2021/04/05 05:59:45;;;;;;;11.65;8.43;;;6.60;76.90;;;;;;6284243;22;20015;-92
2021/04/05 06:02:44;;;;;;;10.80;7.90;;;6.70;77.10;;;;;;6256562;22;20006;-93
2021/04/05 06:05:57;;;;;;;12.57;8.80;;;6.70;76.30;;;;;;6283775;22;20054;-93
2021/04/05 06:09:02;;;;;;;9.98;7.35;;;6.80;76.20;;;;;;6255781;22;20004;-93
2021/04/05 06:11:49;;;;;;;12.35;8.48;;;7.00;75.70;;;;;;6256158;22;20010;-92
2021/04/05 06:15:03;;;;;;;;;;;;;;;;;;;;;
2021/04/05 06:17:41;;;;;;;10.40;7.10;;;7.20;75.20;;;;;;6282643;22;20086;-93
2021/04/05 06:20:40;;;;;;;10.07;6.15;;;7.30;74.50;;;;;;6256109;22;20004;-92
2021/04/05 06:23:30;;;;;;;8.73;5.78;;;7.40;74.00;;;;;;6255711;22;20000;-92
2021/04/05 06:26:14;;;;;;;6.80;5.63;;;7.50;72.40;;;;;;6289978;22;20403;-93
2021/04/05 06:28:50;;;;;;;7.80;5.07;;;7.50;72.30;;;;;;6296329;22;20028;-93
2021/04/05 06:31:39;;;;;;;6.65;4.85;;;7.50;72.20;;;;;;6270314;22;20003;-93
2021/04/05 06:35:00;;;;;;;;;;;;;;;;;;;;;
2021/04/05 06:37:40;;;;;;;6.03;4.50;;;7.70;70.90;;;;;;6303601;22;20031;-92
2021/04/05 06:44:13;;;;;;;;;;;;;;;;;;;;;
2021/04/05 06:47:01;;;;;;;10.30;7.47;;;8.00;70.80;;;;;;6291646;22;20027;-92
2021/04/05 06:50:15;;;;;;;;;;;;;;;;;;;;;
2021/04/05 06:53:08;;;;;;;11.38;6.63;;;8.10;70.50;;;;;;6281064;22;20027;-93
2021/04/05 06:55:55;;;;;;;10.68;7.22;;;8.40;70.70;;;;;;6265947;22;20015;-93
2021/04/05 06:58:42;;;;;;;11.30;8.10;;;8.60;70.80;;;;;;6278167;22;20354;-93
2021/04/05 07:01:36;;;;;;;14.00;7.30;;;8.90;69.90;;;;;;6279457;22;20010;-93
2021/04/05 07:04:16;;;;;;;11.88;8.40;;;9.00;69.60;;;;;;6272802;22;20000;-93
2021/04/05 07:07:02;;;;;;;11.32;7.88;;;9.10;68.20;;;;;;6287802;22;20069;-92
2021/04/05 07:10:09;;;;;;;11.55;9.05;;;9.10;68.40;;;;;;6289485;22;19996;-93
2021/04/05 07:12:59;;;;;;;10.98;7.18;;;9.30;67.10;;;;;;6172390;23;20068;-93
2021/04/05 07:15:57;;;;;;;10.93;6.85;;;9.30;66.30;;;;;;6172880;23;20024;-93
2021/04/05 07:18:47;;;;;;;12.55;7.35;;;9.30;66.90;;;;;;6274900;22;20011;-93
2021/04/05 07:21:42;;;;;;;10.23;6.97;;;9.30;66.40;;;;;;6290919;22;20000;-93
2021/04/05 07:27:37;;;;;;;8.57;7.22;;;9.50;66.20;;;;;;6280114;22;20059;-93
2021/04/05 07:30:23;;;;;;;14.45;6.75;;;9.60;63.60;;;;;;6279741;22;20003;-96
2021/04/05 07:36:21;;;;;;;;;;;;;;;;;;;;;
2021/04/05 07:39:02;;;;;;;9.15;5.78;;;9.60;63.60;;;;;;6279866;22;20090;-96
2021/04/05 07:41:53;;;;;;;8.85;6.03;;;9.60;64.00;;;;;;6281367;22;20000;-95
2021/04/05 07:45:06;;;;;;;;;;;;;;;;;;;;;
2021/04/05 08:02:06;;;;;;;7.82;5.60;;;9.70;62.70;;;;;;6195477;23;20120;-95
2021/04/05 08:05:18;;;;;;;5.22;4.43;;;9.80;61.20;;;;;;6146716;23;20063;-95
2021/04/05 08:08:35;;;;;;;6.22;4.85;;;9.80;61.30;;;;;;6182193;23;20000;-94
2021/04/05 08:12:05;;;;;;;6.13;4.88;;;9.90;61.00;;;;;;6219205;23;20012;-93
2021/04/05 08:14:48;;;;;;;5.22;4.00;;;10.00;57.90;;;;;;6214629;23;20005;-96
2021/04/05 08:17:32;;;;;;;6.78;4.50;;;9.90;59.60;;;;;;6214615;23;20008;-95
2021/04/05 08:20:30;;;;;;;6.72;4.97;;;10.00;58.60;;;;;;6299897;22;20047;-96
2021/04/05 08:27:09;;;;;;;6.85;5.05;;;10.10;57.50;;;;;;6321436;22;20099;-95
2021/04/05 08:29:48;;;;;;;9.50;3.97;;;10.20;58.90;;;;;;6332667;22;20011;-94
2021/04/05 08:32:52;;;;;;;;;;;;;;;;;;;;;
2021/04/05 08:35:42;;;;;;;6.22;4.88;;;10.70;57.80;;;;;;6320759;22;20323;-95
2021/04/05 08:58:38;;;;;;;6.18;3.97;;;11.20;55.20;;;;;;6202672;23;19907;-95
2021/04/05 09:01:19;;;;;;;;;;;11.30;53.40;;;;;;6161386;23;20028;-92
2021/04/05 09:11:29;;;;;;;4.85;3.95;;;11.50;52.70;;;;;;6299022;22;20234;-93
2021/04/05 09:30:49;;;;;;;6.30;4.85;;;11.50;53.00;;;;;;6317676;22;20025;-94
2021/04/05 09:34:00;;;;;;;7.70;4.80;;;11.60;51.10;;;;;;6352367;22;20056;-94
2021/04/05 09:37:04;;;;;;;7.60;5.40;;;11.60;50.40;;;;;;6355473;22;20066;-94
2021/04/05 09:40:06;;;;;;;6.10;5.03;;;11.60;49.00;;;;;;6323330;22;20009;-94
2021/04/05 09:42:50;;;;;;;5.40;4.50;;;11.60;51.20;;;;;;6315787;22;20010;-95
2021/04/05 09:45:43;;;;;;;5.30;4.13;;;11.80;52.10;;;;;;6314630;22;20003;-94
2021/04/05 09:49:03;;;;;;;;;;;;;;;;;;;;;
2021/04/05 09:52:06;;;;;;;5.32;3.45;;;12.20;48.90;;;;;;6345836;22;20023;-94
2021/04/05 09:54:43;;;;;;;5.10;3.85;;;12.10;47.90;;;;;;6345599;22;20211;-93
2021/04/05 09:57:34;;;;;;;4.63;3.88;;;12.10;49.60;;;;;;6321208;22;20003;-95
2021/04/05 10:03:20;;;;;;;4.47;3.75;;;12.10;49.50;;;;;;6324996;22;20011;-94
2021/04/05 10:05:48;;;;;;;4.22;3.50;;;12.00;48.60;;;;;;6301540;22;20003;-94
2021/04/05 10:08:49;;;;;;;4.22;2.40;;;11.80;48.10;;;;;;6301963;22;20018;-95
2021/04/05 10:11:27;;;;;;;4.40;3.00;;;11.60;46.90;;;;;;6270764;22;20064;-96
2021/04/05 10:14:25;;;;;;;3.47;2.78;;;11.40;46.70;;;;;;6261371;23;20004;-94
2021/04/05 10:17:19;;;;;;;4.22;3.03;;;11.30;47.90;;;;;;6275501;22;20016;-94
2021/04/05 10:20:19;;;;;;;3.75;2.72;;;11.40;45.60;;;;;;6279924;22;20379;-96
2021/04/05 10:23:07;;;;;;;2.95;2.30;;;11.40;48.10;;;;;;6254815;22;20000;-94
2021/04/05 10:25:39;;;;;;;3.72;2.50;;;11.60;49.50;;;;;;6227173;23;20015;-94
2021/04/05 10:28:08;;;;;;;4.95;3.03;;;11.90;49.20;;;;;;6250745;23;20004;-94
2021/04/05 10:31:03;;;;;;;2.42;2.10;;;12.20;49.40;;;;;;6271514;22;20005;-93
2021/04/05 10:33:51;;;;;;;;;;;12.50;48.50;;;;;;6270796;22;20004;-94
2021/04/05 10:37:08;;;;;;;8.27;2.80;;;12.80;48.40;;;;;;6247427;23;19911;-94
2021/04/05 10:40:08;;;;;;;3.08;2.40;;;13.10;47.70;;;;;;6226096;23;19996;-94
2021/04/05 10:43:43;;;;;;;;;;;;;;;;;;;;;
2021/04/05 10:47:24;;;;;;;;;;;;;;;;;;;;;
2021/04/05 10:50:57;;;;;;;;;;;;;;;;;;;;;
2021/04/05 10:53:36;;;;;;;3.20;2.90;;;14.10;46.90;;;;;;6099632;23;20114;-95
2021/04/05 10:56:10;;;;;;;3.63;2.70;;;14.30;46.80;;;;;;6130316;23;20041;-96
2021/04/05 10:58:48;;;;;;;4.07;3.65;;;14.40;46.40;;;;;;6250858;23;20039;-96
2021/04/05 11:01:26;;;;;;;;;;;;;;;;;;;;;
2021/04/05 11:03:57;;;;;;;4.78;3.28;;;14.50;45.40;;;;;;6258383;22;20050;-93
2021/04/05 11:06:37;;;;;;;5.07;3.50;;;14.60;45.20;;;;;;6279792;22;20011;-94
2021/04/05 11:09:13;;;;;;;5.40;3.70;;;14.70;45.00;;;;;;6281041;22;20004;-93
2021/04/05 11:11:42;;;;;;;5.90;3.47;;;14.80;44.70;;;;;;6256089;22;20312;-93
2021/04/05 11:14:24;;;;;;;5.57;4.40;;;14.80;44.50;;;;;;6283293;22;20012;-95
2021/04/05 11:17:29;;;;;;;4.45;3.58;;;14.80;43.60;;;;;;6284635;22;20079;-94
2021/04/05 11:20:00;;;;;;;6.15;4.32;;;14.70;42.40;;;;;;6281371;22;20007;-92
2021/04/05 11:22:30;;;;;;;6.53;4.90;;;14.60;43.80;;;;;;6286370;22;20007;-91
2021/04/05 11:25:05;;;;;;;6.72;5.75;;;14.60;43.40;;;;;;6281118;22;20004;-92
2021/04/05 11:27:43;;;;;;;7.47;5.57;;;14.50;42.70;;;;;;6283960;22;20077;-90
2021/04/05 11:30:12;;;;;;;8.00;5.63;;;14.40;43.40;;;;;;6287341;22;20031;-92
2021/04/05 11:32:41;;;;;;;6.97;5.30;;;14.40;44.00;;;;;;6283028;22;20416;-93
2021/04/05 11:35:21;;;;;;;9.90;7.15;;;14.50;44.30;;;;;;6307015;22;19995;-92
2021/04/05 11:37:53;;;;;;;13.70;9.50;;;14.70;44.10;;;;;;6304948;22;20079;-92
2021/04/05 11:40:34;;;;;;;16.85;9.88;;;14.80;43.50;;;;;;6304179;22;20011;-94
2021/04/05 11:43:13;;;;;;;13.63;9.55;;;14.90;42.70;;;;;;6306988;22;20034;-93
2021/04/05 11:46:36;;;;;;;11.20;6.72;;;14.90;43.20;;;;;;6283060;22;20046;-95
2021/04/05 11:49:14;;;;;;;11.65;6.68;;;14.80;42.60;;;;;;6173526;23;20005;-94
2021/04/05 11:52:40;;;;;;;9.43;6.45;;;14.80;43.00;;;;;;6295190;22;19996;-94
2021/04/05 11:55:33;;;;;;;9.65;6.35;;;14.70;41.60;;;;;;6253090;22;20091;-95
2021/04/05 12:01:48;;;;;;;16.40;10.85;;;13.90;40.40;;;;;;6239210;22;20005;-94
2021/04/05 12:04:47;;;;;;;16.83;9.80;;;13.30;41.40;;;;;;6306896;22;20035;-95
2021/04/05 12:07:18;;;;;;;16.77;8.05;;;13.00;42.10;;;;;;6312585;22;20003;-94
2021/04/05 12:09:50;;;;;;;10.85;7.65;;;12.80;43.60;;;;;;6325966;22;20015;-92
2021/04/05 12:12:27;;;;;;;9.32;5.47;;;12.90;44.50;;;;;;6297441;22;19999;-93
2021/04/05 12:15:34;;;;;;;7.82;5.78;;;13.20;45.30;;;;;;6322113;22;20007;-93
2021/04/05 12:18:27;;;;;;;8.38;5.80;;;13.50;44.60;;;;;;6317496;22;20086;-91
2021/04/05 12:21:16;;;;;;;7.38;4.72;;;13.60;44.00;;;;;;6292367;22;20003;-93
2021/04/05 12:23:55;;;;;;;7.13;4.85;;;13.80;43.10;;;;;;6290541;22;20075;-95
2021/04/05 12:26:42;;;;;;;6.25;4.45;;;14.00;43.60;;;;;;6309961;22;20053;-93
2021/04/05 12:29:39;;;;;;;7.15;4.97;;;14.10;43.20;;;;;;6312696;22;19999;-95
2021/04/05 12:32:12;;;;;;;6.25;3.95;;;14.20;42.60;;;;;;6289446;22;20014;-92
2021/04/05 12:34:39;;;;;;;6.53;4.93;;;14.20;42.10;;;;;;6281572;22;20094;-91
2021/04/05 12:37:42;;;;;;;5.28;4.55;;;14.10;41.80;;;;;;6309126;22;20014;-93
2021/04/05 12:40:11;;;;;;;4.55;3.78;;;14.00;40.90;;;;;;6284085;22;20000;-92
2021/04/05 12:42:40;;;;;;;4.90;3.30;;;14.10;42.20;;;;;;6288252;22;19999;-94
2021/04/05 12:45:14;;;;;;;3.38;2.97;;;14.10;42.10;;;;;;6312444;22;20070;-95
2021/04/05 12:47:44;;;;;;;2.97;2.70;;;14.20;41.80;;;;;;6282897;22;20003;-93
2021/04/05 12:50:14;;;;;;;2.67;2.30;;;14.30;41.40;;;;;;6284898;22;20331;-93
2021/04/05 12:52:49;;;;;;;4.18;3.17;;;14.30;41.30;;;;;;6295428;22;20059;-93
2021/04/05 12:55:20;;;;;;;3.53;2.85;;;14.30;40.90;;;;;;6315862;22;20078;-93
2021/04/05 12:57:46;;;;;;;9.85;6.25;;;14.20;40.50;;;;;;6282113;22;20015;-90
2021/04/05 13:00:21;;;;;;;11.10;6.85;;;13.90;40.30;;;;;;6281857;22;20023;-91
2021/04/05 13:03:16;;;;;;;7.07;4.93;;;13.60;40.50;;;;;;6285581;22;20003;-92
2021/04/05 13:06:14;;;;;;;5.68;4.20;;;13.10;38.70;;;;;;6286238;22;20019;-90
2021/04/05 13:09:07;;;;;;;4.65;3.00;;;12.70;41.70;;;;;;6316949;22;20080;-93
2021/04/05 13:12:01;;;;;;;5.10;3.55;;;12.60;41.00;;;;;;6285663;22;20007;-92
2021/04/05 13:14:47;;;;;;;3.15;2.85;;;12.50;41.70;;;;;;6284553;22;20000;-92
2021/04/05 13:17:27;;;;;;;7.05;3.53;;;12.40;41.90;;;;;;6308899;22;20007;-92
2021/04/05 13:19:59;;;;;;;5.13;3.88;;;12.40;42.00;;;;;;6283875;22;20542;-91
2021/04/05 13:22:30;;;;;;;3.40;3.10;;;12.40;42.20;;;;;;6283632;22;19996;-91
2021/04/05 13:25:16;;;;;;;5.57;3.63;;;12.40;42.40;;;;;;6285154;22;20018;-91
2021/04/05 13:27:58;;;;;;;5.15;3.88;;;12.40;42.30;;;;;;6289236;22;20030;-91
2021/04/05 13:30:39;;;;;;;5.25;3.53;;;12.40;42.20;;;;;;6295854;22;19996;-92
2021/04/05 13:33:07;;;;;;;5.22;3.60;;;12.30;42.20;;;;;;6290064;22;20186;-91
2021/04/05 13:35:36;;;;;;;7.30;4.40;;;12.40;42.40;;;;;;6284489;22;20029;-91
2021/04/05 13:38:10;;;;;;;6.50;4.10;;;12.40;42.60;;;;;;6286596;22;20279;-90
2021/04/05 13:40:36;;;;;;;;;;;12.40;42.30;;;;;;6289473;22;20138;-90
2021/04/05 13:43:14;;;;;;;6.40;4.00;;;12.30;42.30;;;;;;6284838;22;19899;-91
2021/04/05 13:45:47;;;;;;;6.22;4.55;;;12.40;42.70;;;;;;6287003;22;20005;-91
2021/04/05 13:48:16;;;;;;;7.97;3.90;;;12.50;42.50;;;;;;6285474;22;20423;-92
2021/04/05 13:50:45;;;;;;;6.50;4.75;;;12.50;42.70;;;;;;6282018;22;20038;-92
2021/04/05 13:53:14;;;;;;;5.82;4.53;;;12.60;42.60;;;;;;6282653;22;20003;-92
2021/04/05 13:55:54;;;;;;;6.50;4.63;;;12.60;42.40;;;;;;6309594;22;20288;-92
2021/04/05 13:58:30;;;;;;;7.20;4.53;;;12.70;42.40;;;;;;6279063;22;20445;-91
2021/04/05 14:01:04;;;;;;;6.90;4.88;;;12.90;42.50;;;;;;6289234;22;19999;-90
2021/04/05 14:03:34;;;;;;;6.57;4.65;;;13.20;42.40;;;;;;6299467;22;20410;-90
2021/04/05 14:06:11;;;;;;;6.55;4.60;;;13.40;41.80;;;;;;6298627;22;20011;-90
2021/04/05 14:08:41;;;;;;;3.90;2.95;;;13.30;40.30;;;;;;6324612;22;20003;-91
2021/04/05 14:11:24;;;;;;;4.70;3.35;;;13.30;40.70;;;;;;6297903;22;19996;-91
2021/04/05 14:13:53;;;;;;;4.78;3.00;;;13.20;38.60;;;;;;6326002;22;20433;-92
2021/04/05 14:16:22;;;;;;;6.30;3.83;;;13.00;38.40;;;;;;6287117;22;20008;-91
2021/04/05 14:19:07;;;;;;;6.00;3.40;;;12.80;38.00;;;;;;6284962;22;20010;-91
2021/04/05 14:21:36;;;;;;;5.68;3.60;;;12.60;36.70;;;;;;6283394;22;20014;-91
2021/04/05 14:24:14;;;;;;;4.28;3.05;;;12.50;36.60;;;;;;6310574;22;20023;-91
2021/04/05 14:26:45;;;;;;;5.10;3.15;;;12.40;37.50;;;;;;6283102;22;20084;-91
2021/04/05 14:29:13;;;;;;;3.60;2.83;;;12.30;37.60;;;;;;6281951;22;20709;-92
2021/04/05 14:31:48;;;;;;;5.35;3.97;;;12.10;37.70;;;;;;6280253;22;20042;-91
2021/04/05 14:34:30;;;;;;;6.35;3.08;;;12.00;37.90;;;;;;6284562;22;20083;-93
2021/04/05 14:37:09;;;;;;;5.72;3.05;;;11.90;37.70;;;;;;6283315;22;20090;-91
2021/04/05 14:39:38;;;;;;;5.47;3.00;;;11.80;37.60;;;;;;6283000;22;20141;-91
2021/04/05 14:42:17;;;;;;;5.25;2.92;;;11.80;38.10;;;;;;6285029;22;20000;-91
2021/04/05 14:44:49;;;;;;;6.18;3.42;;;11.80;38.00;;;;;;6320385;22;20010;-91
2021/04/05 14:47:18;;;;;;;5.50;3.10;;;11.80;37.90;;;;;;6290672;22;20057;-91
2021/04/05 14:49:54;;;;;;;5.60;3.00;;;11.70;37.10;;;;;;6289497;22;20086;-91
2021/04/05 14:52:30;;;;;;;3.40;2.78;;;11.60;36.90;;;;;;6286690;22;20040;-91
2021/04/05 14:54:59;;;;;;;5.18;2.78;;;11.60;37.20;;;;;;6305240;22;19999;-91
2021/04/05 14:57:42;;;;;;;2.42;2.13;;;11.60;38.20;;;;;;6284136;22;20056;-92
2021/04/05 15:00:13;;;;;;;6.53;2.57;;;11.60;37.90;;;;;;6283854;22;20114;-91
2021/04/05 15:02:42;;;;;;;4.30;2.60;;;11.70;38.00;;;;;;6315507;22;19996;-91
2021/04/05 15:05:10;;;;;;;4.20;2.75;;;11.70;38.00;;;;;;6280744;22;20038;-90
2021/04/05 15:07:39;;;;;;;3.75;2.63;;;11.80;38.00;;;;;;6310284;22;20312;-90
2021/04/05 15:10:09;;;;;;;4.32;2.67;;;12.00;38.50;;;;;;6308519;22;20003;-89
2021/04/05 15:12:39;;;;;;;3.33;2.60;;;12.50;38.90;;;;;;6308439;22;20022;-91
2021/04/05 15:15:15;;;;;;;3.38;2.40;;;13.30;39.30;;;;;;6307348;22;20052;-88
2021/04/05 15:17:49;;;;;;;4.72;2.65;;;14.30;38.40;;;;;;6306298;22;20011;-89
2021/04/05 15:20:17;;;;;;;2.78;2.50;;;15.10;37.40;;;;;;6304976;22;20003;-90
2021/04/05 15:22:49;;;;;;;4.47;2.80;;;16.00;37.10;;;;;;6306263;22;20003;-89
2021/04/05 15:25:16;;;;;;;2.40;2.00;;;16.60;35.70;;;;;;6306636;22;19999;-90